createdAt,value
2022-12-03T00:00:28.785Z,99159.28
2022-12-03T00:02:55.507Z,99162.09
2022-12-03T00:05:22.319Z,99160.09
2022-12-03T00:07:49.138Z,99164.66
2022-12-03T00:10:15.770Z,99157.06
2022-12-03T00:12:42.364Z,99159.19
2022-12-03T00:15:10.338Z,99150.53
2022-12-03T00:17:38.171Z,99154.84
2022-12-03T00:20:07.948Z,99154.78
2022-12-03T00:22:34.676Z,99147.00
2022-12-03T00:25:01.252Z,99141.41
2022-12-03T00:27:27.858Z,99147.91
2022-12-03T00:29:55.408Z,99148.88
2022-12-03T00:32:22.907Z,99147.63
2022-12-03T00:34:49.541Z,99156.53
2022-12-03T00:37:16.181Z,99147.19
2022-12-03T00:39:43.648Z,99141.25
2022-12-03T00:42:10.220Z,99147.41
2022-12-03T00:44:36.803Z,99148.66
2022-12-03T00:47:03.601Z,99142.63
2022-12-03T00:49:30.647Z,99141.81
2022-12-03T00:51:57.208Z,99145.19
2022-12-03T00:54:29.971Z,99150.50
2022-12-03T00:56:58.479Z,99143.09
2022-12-03T00:59:25.227Z,99140.81
2022-12-03T01:01:51.883Z,99144.59
2022-12-03T01:04:18.695Z,99146.66
2022-12-03T01:06:45.377Z,99144.44
2022-12-03T01:09:11.946Z,99146.16
2022-12-03T01:11:38.646Z,99144.09
2022-12-03T01:14:15.235Z,99139.88
2022-12-03T01:16:42.761Z,99138.84
2022-12-03T01:19:10.809Z,99143.13
2022-12-03T01:21:37.919Z,99145.44
2022-12-03T01:24:05.156Z,99148.03
2022-12-03T01:26:31.716Z,99146.44
2022-12-03T01:28:58.312Z,99152.78
2022-12-03T01:31:43.624Z,99157.88
2022-12-03T01:34:10.237Z,99147.44
2022-12-03T01:36:36.788Z,99153.28
2022-12-03T01:39:04.629Z,99151.22
2022-12-03T01:41:33.311Z,99142.63
2022-12-03T01:44:01.248Z,99151.72
2022-12-03T01:46:36.697Z,99140.31
2022-12-03T01:49:03.749Z,99140.78
2022-12-03T01:51:30.866Z,99144.66
2022-12-03T01:53:59.445Z,99147.94
2022-12-03T01:56:26.080Z,99145.13
2022-12-03T01:58:52.669Z,99150.03
2022-12-03T02:01:19.503Z,99142.66
2022-12-03T02:03:46.941Z,99152.81
2022-12-03T02:06:20.582Z,99151.78
2022-12-03T02:08:48.814Z,99149.69
2022-12-03T02:11:33.362Z,99148.66
2022-12-03T02:14:09.226Z,99155.25
2022-12-03T02:16:38.262Z,99149.16
2022-12-03T02:19:18.866Z,99153.50
2022-12-03T02:22:05.762Z,99145.66
2022-12-03T02:25:12.218Z,99153.81
2022-12-03T02:27:40.118Z,99148.22
2022-12-03T02:30:09.022Z,99147.69
2022-12-03T02:32:35.783Z,99144.59
2022-12-03T02:35:03.422Z,99142.38
2022-12-03T02:37:36.527Z,99150.19
2022-12-03T02:40:11.339Z,99146.75
2022-12-03T02:42:38.728Z,99148.25
2022-12-03T02:45:16.377Z,99146.22
2022-12-03T02:47:48.328Z,99145.19
2022-12-03T02:50:22.268Z,99149.03
2022-12-03T02:52:50.855Z,99147.53
2022-12-03T02:55:23.930Z,99141.69
2022-12-03T02:57:51.374Z,99152.31
2022-12-03T03:00:19.931Z,99145.97
2022-12-03T03:02:47.143Z,99143.94
2022-12-03T03:05:15.882Z,99152.31
2022-12-03T03:07:42.896Z,99153.56
2022-12-03T03:10:15.785Z,99145.22
2022-12-03T03:12:42.901Z,99147.28
2022-12-03T03:15:11.898Z,99146.25
2022-12-03T03:17:40.602Z,99155.38
2022-12-03T03:20:10.130Z,99154.09
2022-12-03T03:22:42.610Z,99152.81
2022-12-03T03:25:16.589Z,99141.13
2022-12-03T03:27:44.670Z,99136.56
2022-12-03T03:30:12.850Z,99145.22
2022-12-03T03:32:40.343Z,99139.94
2022-12-03T03:35:08.946Z,99138.84
2022-12-03T03:37:35.648Z,99135.59
2022-12-03T03:40:02.367Z,99135.56
2022-12-03T03:42:29.227Z,99130.97
2022-12-03T03:44:56.103Z,99129.25
2022-12-03T03:47:23.710Z,99132.31
2022-12-03T03:49:50.765Z,99136.09
2022-12-03T03:52:19.103Z,99129.75
2022-12-03T03:54:46.226Z,99122.88
2022-12-03T03:57:12.899Z,99127.94
2022-12-03T03:59:39.703Z,99133.03
2022-12-03T04:02:06.298Z,99120.03
2022-12-03T04:04:36.556Z,99122.16
2022-12-03T04:07:03.293Z,99123.41
2022-12-03T04:09:29.919Z,99115.75
2022-12-03T04:12:15.223Z,99115.53
2022-12-03T04:14:41.775Z,99118.34
2022-12-03T04:17:08.343Z,99105.63
2022-12-03T04:19:34.935Z,99108.16
2022-12-03T04:22:20.074Z,99108.59
2022-12-03T04:24:46.666Z,99097.97
2022-12-03T04:27:31.716Z,99103.28
2022-12-03T04:29:58.282Z,99107.13
2022-12-03T04:32:43.251Z,99097.50
2022-12-03T04:35:28.698Z,99101.50
2022-12-03T04:37:55.410Z,99097.94
2022-12-03T04:40:40.823Z,99097.00
2022-12-03T04:43:07.406Z,99091.41
2022-12-03T04:45:33.998Z,99091.63
2022-12-03T04:48:00.627Z,99086.34
2022-12-03T04:50:27.636Z,99090.38
2022-12-03T04:52:54.231Z,99083.03
2022-12-03T04:55:20.813Z,99087.31
2022-12-03T04:57:47.351Z,99091.56
2022-12-03T05:00:14.807Z,99081.69
2022-12-03T05:02:41.640Z,99084.47
2022-12-03T05:05:09.250Z,99091.91
2022-12-03T05:07:35.885Z,99100.25
2022-12-03T05:10:03.900Z,99093.16
2022-12-03T05:12:30.472Z,99100.50
2022-12-03T05:14:57.066Z,99102.50
2022-12-03T05:17:23.670Z,99102.03
2022-12-03T05:20:09.283Z,99096.19
2022-12-03T05:22:35.907Z,99095.13
2022-12-03T05:25:02.819Z,99097.72
2022-12-03T05:27:29.405Z,99089.31
2022-12-03T05:29:56.094Z,99100.78
2022-12-03T05:32:22.710Z,99091.56
2022-12-03T05:34:49.374Z,99093.41
2022-12-03T05:37:16.007Z,99088.06
2022-12-03T05:39:42.598Z,99092.41
2022-12-03T05:42:28.798Z,99089.63
2022-12-03T05:44:55.758Z,99093.69
2022-12-03T05:47:22.499Z,99095.94
2022-12-03T05:49:49.083Z,99091.41
2022-12-03T05:52:15.643Z,99091.88
2022-12-03T05:54:42.364Z,99099.72
2022-12-03T05:57:08.975Z,99092.19
2022-12-03T05:59:35.542Z,99092.38
2022-12-03T06:02:02.530Z,99099.03
2022-12-03T06:04:29.179Z,99091.69
2022-12-03T06:06:55.755Z,99086.59
2022-12-03T06:09:22.329Z,99090.38
2022-12-03T06:11:53.402Z,99091.91
2022-12-03T06:14:20.908Z,99084.81
2022-12-03T06:16:47.553Z,99089.63
2022-12-03T06:19:14.163Z,99092.69
2022-12-03T06:21:40.729Z,99093.88
2022-12-03T06:24:07.396Z,99093.94
2022-12-03T06:26:33.987Z,99094.41
2022-12-03T06:29:00.613Z,99093.94
2022-12-03T06:31:27.283Z,99091.38
2022-12-03T06:33:53.938Z,99093.41
2022-12-03T06:36:23.480Z,99083.81
2022-12-03T06:38:50.195Z,99097.00
2022-12-03T06:41:16.880Z,99086.56
2022-12-03T06:43:43.496Z,99090.34
2022-12-03T06:46:10.130Z,99096.44
2022-12-03T06:48:36.876Z,99095.41
2022-12-03T06:51:03.847Z,99094.41
2022-12-03T06:53:30.454Z,99087.53
2022-12-03T06:55:57.136Z,99093.13
2022-12-03T06:58:23.745Z,99085.22
2022-12-03T07:00:50.414Z,99089.06
2022-12-03T07:03:17.100Z,99089.09
2022-12-03T07:05:43.745Z,99094.66
2022-12-03T07:08:10.419Z,99091.88
2022-12-03T07:10:37.053Z,99092.69
2022-12-03T07:13:03.677Z,99091.38
2022-12-03T07:15:30.897Z,99089.81
2022-12-03T07:17:57.592Z,99082.72
2022-12-03T07:20:24.200Z,99083.97
2022-12-03T07:22:50.761Z,99078.66
2022-12-03T07:25:22.861Z,99084.25
2022-12-03T07:27:49.864Z,99089.03
2022-12-03T07:30:16.959Z,99085.72
2022-12-03T07:32:43.589Z,99087.31
2022-12-03T07:35:10.348Z,99077.66
2022-12-03T07:37:37.017Z,99081.97
2022-12-03T07:40:05.439Z,99081.97
2022-12-03T07:42:32.111Z,99085.25
2022-12-03T07:44:58.670Z,99079.59
2022-12-03T07:47:25.239Z,99088.75
2022-12-03T07:49:51.813Z,99086.50
2022-12-03T07:52:18.389Z,99087.03
2022-12-03T07:54:44.986Z,99092.38
2022-12-03T07:57:11.598Z,99086.25
2022-12-03T07:59:38.206Z,99082.13
2022-12-03T08:02:04.937Z,99085.63
2022-12-03T08:04:31.695Z,99085.13
2022-12-03T08:06:58.259Z,99080.69
2022-12-03T08:09:24.892Z,99085.63
2022-12-03T08:11:52.236Z,99081.59
2022-12-03T08:14:20.454Z,99089.78
2022-12-03T08:16:47.921Z,99092.97
2022-12-03T08:19:17.095Z,99081.16
2022-12-03T08:21:44.729Z,99079.88
2022-12-03T08:24:19.855Z,99087.19
2022-12-03T08:26:48.719Z,99082.41
2022-12-03T08:29:18.889Z,99085.50
2022-12-03T08:31:54.699Z,99080.63
2022-12-03T08:34:24.839Z,99078.25
2022-12-03T08:36:59.070Z,99087.72
2022-12-03T08:39:41.955Z,99086.22
2022-12-03T08:42:38.271Z,99091.84
2022-12-03T08:45:28.912Z,99092.00
2022-12-03T08:48:00.467Z,99094.91
2022-12-03T08:50:46.144Z,99090.28
2022-12-03T08:53:31.326Z,99088.16
2022-12-03T08:56:18.272Z,99086.44
2022-12-03T08:58:49.514Z,99083.69
2022-12-03T09:01:45.009Z,99088.53
2022-12-03T09:04:25.302Z,99088.59
2022-12-03T09:06:53.391Z,99088.81
2022-12-03T09:09:21.027Z,99086.84
2022-12-03T09:11:47.676Z,99088.53
2022-12-03T09:14:18.505Z,99086.44
2022-12-03T09:16:45.748Z,99083.69
2022-12-03T09:19:15.013Z,99088.13
2022-12-03T09:21:41.744Z,99095.28
2022-12-03T09:24:08.431Z,99091.59
2022-12-03T09:26:34.995Z,99091.56
2022-12-03T09:29:01.559Z,99087.97
2022-12-03T09:31:28.253Z,99084.72
2022-12-03T09:33:54.898Z,99089.72
2022-12-03T09:36:21.575Z,99084.63
2022-12-03T09:38:48.451Z,99074.56
2022-12-03T09:41:15.427Z,99078.34
2022-12-03T09:46:30.062Z,99081.66
2022-12-03T09:48:57.404Z,99077.00
2022-12-03T09:51:30.948Z,99075.16
2022-12-03T09:54:05.369Z,99078.88
2022-12-03T09:56:33.683Z,99085.63
2022-12-03T09:59:00.577Z,99075.03
2022-12-03T10:01:30.369Z,99083.84
2022-12-03T10:03:58.496Z,99074.50
2022-12-03T10:06:25.278Z,99067.47
2022-12-03T10:08:54.918Z,99062.81
2022-12-03T10:11:24.964Z,99066.91
2022-12-03T10:13:55.383Z,99064.50
2022-12-03T10:16:22.177Z,99057.75
2022-12-03T10:18:55.623Z,99059.13
2022-12-03T10:21:37.459Z,99058.81
2022-12-03T10:24:30.441Z,99055.81
2022-12-03T10:27:00.594Z,99055.56
2022-12-03T10:29:34.013Z,99048.81
2022-12-03T10:32:10.097Z,99039.72
2022-12-03T10:34:40.699Z,99038.06
2022-12-03T10:37:25.641Z,99041.34
2022-12-03T10:40:01.262Z,99037.38
2022-12-03T10:42:33.572Z,99029.72
2022-12-03T10:45:26.351Z,99019.09
2022-12-03T10:48:11.922Z,99025.59
2022-12-03T10:50:53.763Z,99021.34
2022-12-03T10:53:23.535Z,99012.97
2022-12-03T10:55:52.012Z,99018.25
2022-12-03T10:58:23.315Z,99012.34
2022-12-03T11:00:55.496Z,99009.81
2022-12-03T11:03:30.733Z,99015.28
2022-12-03T11:06:00.577Z,99011.50
2022-12-03T11:08:32.529Z,99010.72
2022-12-03T11:11:05.365Z,99011.41
2022-12-03T11:13:35.002Z,98998.06
2022-12-03T11:16:05.722Z,99003.50
2022-12-03T11:18:38.450Z,99004.78
2022-12-03T11:21:13.734Z,99002.28
2022-12-03T11:23:46.425Z,99001.31
2022-12-03T11:26:38.194Z,98999.78
2022-12-03T11:29:13.786Z,98999.66
2022-12-03T11:31:47.761Z,98989.50
2022-12-03T11:34:20.295Z,98994.13
2022-12-03T11:37:11.654Z,98993.94
2022-12-03T11:39:50.531Z,98987.75
2022-12-03T11:42:25.762Z,98991.19
2022-12-03T11:45:04.377Z,98990.47
2022-12-03T11:47:39.911Z,98982.81
2022-12-03T11:50:21.843Z,98985.22
2022-12-03T11:53:02.310Z,98976.47
2022-12-03T11:55:33.070Z,98978.59
2022-12-03T11:58:04.424Z,98969.97
2022-12-03T12:00:32.533Z,98969.31
2022-12-03T12:02:59.267Z,98966.44
2022-12-03T12:05:32.424Z,98959.50
2022-12-03T12:08:01.534Z,98957.78
2022-12-03T12:10:58.018Z,98957.91
2022-12-03T12:13:30.454Z,98951.91
2022-12-03T12:16:02.749Z,98949.56
2022-12-03T12:18:52.262Z,98958.66
2022-12-03T12:21:50.824Z,98945.81
2022-12-03T12:24:41.127Z,98947.41
2022-12-03T12:27:22.771Z,98942.00
2022-12-03T12:29:58.787Z,98935.53
2022-12-03T12:32:29.783Z,98936.38
2022-12-03T12:35:14.852Z,98937.88
2022-12-03T12:37:59.501Z,98927.38
2022-12-03T12:40:30.884Z,98922.22
2022-12-03T12:43:15.289Z,98936.38
2022-12-03T12:45:43.950Z,98927.75
2022-12-03T12:48:27.447Z,98923.56
2022-12-03T12:51:14.127Z,98921.31
2022-12-03T12:53:44.777Z,98920.09
2022-12-03T12:56:30.337Z,98929.28
2022-12-03T12:59:06.056Z,98923.66
2022-12-03T13:01:33.088Z,98929.97
2022-12-03T13:03:59.829Z,98920.81
2022-12-03T13:06:30.305Z,98924.34
2022-12-03T13:09:00.882Z,98916.72
2022-12-03T13:11:41.959Z,98925.78
2022-12-03T13:14:30.362Z,98928.91
2022-12-03T13:17:01.579Z,98923.31
2022-12-03T13:19:32.446Z,98922.22
2022-12-03T13:22:03.239Z,98917.00
2022-12-03T13:24:42.038Z,98927.75
2022-12-03T13:27:17.949Z,98924.56
2022-12-03T13:29:46.754Z,98926.41
2022-12-03T13:32:19.850Z,98919.22
2022-12-03T13:34:47.895Z,98933.34
2022-12-03T13:37:22.482Z,98923.06
2022-12-03T13:39:53.322Z,98918.75
2022-12-03T13:42:39.291Z,98919.03
2022-12-03T13:45:14.838Z,98924.94
2022-12-03T13:47:49.902Z,98914.56
2022-12-03T13:50:40.548Z,98910.94
2022-12-03T13:53:19.310Z,98918.47
2022-12-03T13:55:50.682Z,98910.00
2022-12-03T13:58:17.380Z,98909.09
2022-12-03T14:00:44.413Z,98919.50
2022-12-03T14:03:11.251Z,98919.88
2022-12-03T14:05:37.878Z,98913.84
2022-12-03T14:08:05.920Z,98914.06
2022-12-03T14:10:32.569Z,98910.13
2022-12-03T14:12:59.305Z,98911.28
2022-12-03T14:15:26.314Z,98906.53
2022-12-03T14:17:53.206Z,98905.88
2022-12-03T14:20:20.682Z,98902.50
2022-12-03T14:22:47.397Z,98896.25
2022-12-03T14:25:14.056Z,98888.66
2022-12-03T14:27:40.615Z,98891.94
2022-12-03T14:30:10.985Z,98899.56
2022-12-03T14:32:37.599Z,98893.81
2022-12-03T14:35:09.696Z,98900.53
2022-12-03T14:37:36.812Z,98894.44
2022-12-03T14:40:04.225Z,98905.16
2022-12-03T14:42:30.855Z,98893.50
2022-12-03T14:44:57.486Z,98896.56
2022-12-03T14:47:24.111Z,98905.06
2022-12-03T14:49:52.348Z,98900.97
2022-12-03T14:52:19.668Z,98890.44
2022-12-03T14:54:46.456Z,98903.38
2022-12-03T14:57:14.845Z,98891.41
2022-12-03T14:59:42.977Z,98893.72
2022-12-03T15:02:11.102Z,98891.19
2022-12-03T15:04:39.440Z,98903.00
2022-12-03T15:07:06.953Z,98892.59
2022-12-03T15:09:33.864Z,98894.81
2022-12-03T15:12:00.569Z,98897.78
2022-12-03T15:14:27.522Z,98895.91
2022-12-03T15:16:59.057Z,98895.00
2022-12-03T15:19:25.730Z,98892.84
2022-12-03T15:21:52.322Z,98886.00
2022-12-03T15:24:18.940Z,98898.81
2022-12-03T15:26:45.549Z,98896.63
2022-12-03T15:29:12.169Z,98894.38
2022-12-03T15:31:38.886Z,98889.47
2022-12-03T15:34:05.679Z,98900.22
2022-12-03T15:36:32.329Z,98889.81
2022-12-03T15:38:58.949Z,98894.44
2022-12-03T15:41:29.244Z,98895.09
2022-12-03T15:44:04.078Z,98899.25
2022-12-03T15:46:31.401Z,98894.25
2022-12-03T15:48:58.233Z,98888.38
2022-12-03T15:51:25.351Z,98889.34
2022-12-03T15:53:52.083Z,98893.81
2022-12-03T15:56:18.778Z,98899.53
2022-12-03T15:58:45.597Z,98897.50
2022-12-03T16:01:13.554Z,98892.66
2022-12-03T16:03:41.171Z,98900.44
2022-12-03T16:06:08.058Z,98905.41
2022-12-03T16:08:34.743Z,98907.66
2022-12-03T16:11:01.381Z,98894.03
2022-12-03T16:13:27.956Z,98892.56
2022-12-03T16:15:54.702Z,98896.69
2022-12-03T16:18:21.387Z,98899.56
2022-12-03T16:20:47.995Z,98894.75
2022-12-03T16:23:14.682Z,98893.00
2022-12-03T16:25:41.443Z,98898.69
2022-12-03T16:28:08.068Z,98894.06
2022-12-03T16:30:36.170Z,98897.28
2022-12-03T16:33:02.948Z,98893.31
2022-12-03T16:35:29.600Z,98906.03
2022-12-03T16:37:56.263Z,98901.19
2022-12-03T16:40:22.939Z,98896.00
2022-12-03T16:42:49.548Z,98906.97
2022-12-03T16:45:33.097Z,98894.81
2022-12-03T16:48:01.551Z,98895.47
2022-12-03T16:50:30.138Z,98899.75
2022-12-03T16:52:57.646Z,98889.34
2022-12-03T16:55:24.520Z,98889.06
2022-12-03T16:57:51.145Z,98892.72
2022-12-03T17:00:18.195Z,98890.88
2022-12-03T17:02:44.896Z,98892.03
2022-12-03T17:05:11.614Z,98891.94
2022-12-03T17:07:38.426Z,98882.22
2022-12-03T17:10:06.266Z,98885.44
2022-12-03T17:12:54.148Z,98893.72
2022-12-03T17:15:19.444Z,98888.84
2022-12-03T17:17:46.135Z,98883.91
2022-12-03T17:20:14.483Z,98891.16
2022-12-03T17:22:41.665Z,98883.56
2022-12-03T17:25:09.398Z,98881.22
2022-12-03T17:27:40.774Z,98893.31
2022-12-03T17:30:10.944Z,98882.94
2022-12-03T17:32:37.568Z,98884.03
2022-12-03T17:35:04.863Z,98879.69
2022-12-03T17:37:31.468Z,98870.75
2022-12-03T17:39:58.170Z,98872.16
2022-12-03T17:42:24.791Z,98875.69
2022-12-03T17:44:51.496Z,98869.38
2022-12-03T17:47:18.235Z,98865.91
2022-12-03T17:49:52.264Z,98866.09
2022-12-03T17:52:19.063Z,98856.78
2022-12-03T17:55:09.071Z,98866.56
2022-12-03T17:57:32.307Z,98858.91
2022-12-03T17:59:58.954Z,98856.00
2022-12-03T18:02:25.591Z,98852.28
2022-12-03T18:04:52.271Z,98853.16
2022-12-03T18:07:23.660Z,98856.28
2022-12-03T18:09:50.266Z,98851.47
2022-12-03T18:12:16.899Z,98853.97
2022-12-03T18:14:43.562Z,98856.31
2022-12-03T18:17:10.232Z,98866.47
2022-12-03T18:19:36.953Z,98863.38
2022-12-03T18:22:03.607Z,98868.94
2022-12-03T18:24:30.264Z,98860.34
2022-12-03T18:26:56.880Z,98852.75
2022-12-03T18:29:23.503Z,98861.81
2022-12-03T18:31:50.174Z,98861.84
2022-12-03T18:34:16.839Z,98864.88
2022-12-03T18:36:43.520Z,98866.47
2022-12-03T18:39:20.449Z,98851.94
2022-12-03T18:41:47.055Z,98850.94
2022-12-03T18:44:13.679Z,98842.38
2022-12-03T18:46:56.116Z,98844.03
2022-12-03T18:49:23.007Z,98839.78
2022-12-03T18:51:53.343Z,98843.78
2022-12-03T18:54:24.088Z,98839.78
2022-12-03T18:56:50.679Z,98841.34
2022-12-03T18:59:17.303Z,98839.44
2022-12-03T19:01:43.985Z,98836.78
2022-12-03T19:04:10.918Z,98844.97
2022-12-03T19:06:37.536Z,98840.53
2022-12-03T19:09:04.477Z,98838.16
2022-12-03T19:11:31.132Z,98843.66
2022-12-03T19:13:59.005Z,98839.19
2022-12-03T19:16:25.803Z,98848.44
2022-12-03T19:19:02.460Z,98840.31
2022-12-03T19:21:33.503Z,98853.03
2022-12-03T19:24:25.619Z,98846.19
2022-12-03T19:26:47.671Z,98838.78
2022-12-03T19:29:14.432Z,98840.66
2022-12-03T19:31:41.094Z,98834.41
2022-12-03T19:34:08.169Z,98829.84
2022-12-03T19:36:34.789Z,98831.97
2022-12-03T19:39:08.532Z,98840.09
2022-12-03T19:41:35.256Z,98835.59
2022-12-03T19:44:06.322Z,98841.38
2022-12-03T19:46:38.916Z,98833.50
2022-12-03T19:49:06.061Z,98830.06
2022-12-03T19:51:35.440Z,98834.44
2022-12-03T19:54:09.837Z,98838.78
2022-12-03T19:56:36.659Z,98835.34
2022-12-03T19:59:03.936Z,98836.66
2022-12-03T20:01:33.474Z,98834.56
2022-12-03T20:04:02.778Z,98828.59
2022-12-03T20:06:35.147Z,98833.97
2022-12-03T20:09:12.659Z,98831.63
2022-12-03T20:11:41.649Z,98833.50
2022-12-03T20:14:14.621Z,98830.75
2022-12-03T20:16:41.673Z,98832.22
2022-12-03T20:19:11.156Z,98837.78
2022-12-03T20:21:39.187Z,98832.38
2022-12-03T20:24:07.147Z,98826.88
2022-12-03T20:26:34.506Z,98821.03
2022-12-03T20:29:02.948Z,98819.44
2022-12-03T20:31:31.425Z,98832.16
2022-12-03T20:34:01.554Z,98828.28
2022-12-03T20:36:30.724Z,98827.13
2022-12-03T20:39:01.585Z,98822.28
2022-12-03T20:41:28.481Z,98820.19
2022-12-03T20:43:55.565Z,98820.66
2022-12-03T20:46:29.201Z,98820.91
2022-12-03T20:49:01.967Z,98814.66
2022-12-03T20:51:30.783Z,98808.06
2022-12-03T20:53:59.812Z,98830.75
2022-12-03T20:56:31.141Z,98827.59
2022-12-03T20:59:01.819Z,98826.72
2022-12-03T21:01:28.913Z,98827.19
2022-12-03T21:03:56.851Z,98821.38
2022-12-03T21:06:26.445Z,98820.56
2022-12-03T21:08:54.837Z,98824.66
2022-12-03T21:11:26.048Z,98817.47
2022-12-03T21:13:54.366Z,98812.03
2022-12-03T21:16:46.043Z,98815.19
2022-12-03T21:19:12.509Z,98820.50
2022-12-03T21:21:39.144Z,98814.00
2022-12-03T21:24:06.177Z,98815.50
2022-12-03T21:26:33.911Z,98813.53
2022-12-03T21:29:00.613Z,98819.53
2022-12-03T21:31:27.758Z,98819.53
2022-12-03T21:33:56.271Z,98809.88
2022-12-03T21:36:25.119Z,98802.38
2022-12-03T21:38:52.183Z,98805.44
2022-12-03T21:41:19.011Z,98806.28
2022-12-03T21:43:45.652Z,98810.16
2022-12-03T21:47:10.953Z,98808.31
2022-12-03T21:49:03.664Z,98809.56
2022-12-03T21:51:30.361Z,98802.50
2022-12-03T21:54:00.487Z,98796.63
2022-12-03T21:56:27.086Z,98797.53
2022-12-03T21:58:54.541Z,98793.53
2022-12-03T22:01:23.776Z,98806.13
2022-12-03T22:03:51.104Z,98799.88
2022-12-03T22:06:18.481Z,98796.34
2022-12-03T22:08:45.997Z,98798.34
2022-12-03T22:11:16.462Z,98802.13
2022-12-03T22:13:43.425Z,98799.03
2022-12-03T22:16:15.749Z,98802.72
2022-12-03T22:18:43.231Z,98794.84
2022-12-03T22:21:14.974Z,98795.69
2022-12-03T22:23:41.704Z,98793.56
2022-12-03T22:26:12.835Z,98783.69
2022-12-03T22:28:43.579Z,98788.66
2022-12-03T22:31:11.204Z,98787.47
2022-12-03T22:33:37.981Z,98788.72
2022-12-03T22:36:19.708Z,98791.84
2022-12-03T22:38:47.019Z,98785.09
2022-12-03T22:41:16.131Z,98788.97
2022-12-03T22:43:45.355Z,98793.34
2022-12-03T22:46:13.050Z,98783.88
2022-12-03T22:48:42.106Z,98784.91
2022-12-03T22:51:21.658Z,98778.81
2022-12-03T22:53:54.033Z,98768.91
2022-12-03T22:56:22.193Z,98769.84
2022-12-03T22:58:48.938Z,98768.47
2022-12-03T23:01:30.366Z,98773.31
2022-12-03T23:03:57.216Z,98774.81
2022-12-03T23:06:24.652Z,98772.47
2022-12-03T23:08:52.140Z,98776.34
2022-12-03T23:11:19.189Z,98767.09
2022-12-03T23:13:46.000Z,98764.47
2022-12-03T23:16:20.521Z,98771.06
2022-12-03T23:18:47.157Z,98759.59
2022-12-03T23:21:28.992Z,98761.78
2022-12-03T23:23:57.091Z,98760.44
2022-12-03T23:26:24.693Z,98758.91
2022-12-03T23:28:51.453Z,98757.50
2022-12-03T23:31:26.551Z,98761.97
2022-12-03T23:33:54.144Z,98760.47
2022-12-03T23:36:22.347Z,98744.75
2022-12-03T23:38:49.238Z,98739.88
2022-12-03T23:41:20.331Z,98734.94
2022-12-03T23:43:47.511Z,98730.28
2022-12-03T23:46:25.108Z,98731.28
2022-12-03T23:48:52.471Z,98724.69
2022-12-03T23:51:23.920Z,98713.09
2022-12-03T23:53:52.714Z,98710.88
2022-12-03T23:56:27.731Z,98713.84
2022-12-03T23:58:54.547Z,98721.50
